sensor_id;sensor_type;location;lat;lon;timestamp;temperature;humidity
19164;DHT22;9714;51.208;4.242;2023-07-22T00:02:18;18.70;99.90
19164;DHT22;9714;51.208;4.242;2023-07-22T00:04:46;18.70;99.90
19164;DHT22;9714;51.208;4.242;2023-07-22T00:07:15;18.90;99.90
19164;DHT22;9714;51.208;4.242;2023-07-22T00:09:43;19.00;99.90
19164;DHT22;9714;51.208;4.242;2023-07-22T00:12:10;19.00;99.90
19164;DHT22;9714;51.208;4.242;2023-07-22T00:14:40;18.90;99.90
19164;DHT22;9714;51.208;4.242;2023-07-22T00:17:07;18.70;99.90
19164;DHT22;9714;51.208;4.242;2023-07-22T00:19:35;18.70;99.90
19164;DHT22;9714;51.208;4.242;2023-07-22T00:22:02;18.60;99.90
19164;DHT22;9714;51.208;4.242;2023-07-22T00:24:31;18.80;99.90
19164;DHT22;9714;51.208;4.242;2023-07-22T00:26:58;18.60;99.90
19164;DHT22;9714;51.208;4.242;2023-07-22T00:29:25;18.70;99.90
19164;DHT22;9714;51.208;4.242;2023-07-22T00:31:52;18.60;99.90
19164;DHT22;9714;51.208;4.242;2023-07-22T00:34:19;18.70;99.90
19164;DHT22;9714;51.208;4.242;2023-07-22T00:36:46;18.80;99.90
19164;DHT22;9714;51.208;4.242;2023-07-22T00:39:13;18.70;99.90
19164;DHT22;9714;51.208;4.242;2023-07-22T00:41:42;18.90;99.90
19164;DHT22;9714;51.208;4.242;2023-07-22T00:44:10;18.70;99.90
19164;DHT22;9714;51.208;4.242;2023-07-22T00:46:38;18.90;99.90
19164;DHT22;9714;51.208;4.242;2023-07-22T00:49:05;18.80;99.90
19164;DHT22;9714;51.208;4.242;2023-07-22T00:51:33;18.70;99.90
19164;DHT22;9714;51.208;4.242;2023-07-22T00:54:01;18.80;99.90
19164;DHT22;9714;51.208;4.242;2023-07-22T00:56:32;18.70;99.90
19164;DHT22;9714;51.208;4.242;2023-07-22T00:59:02;18.70;99.90
19164;DHT22;9714;51.208;4.242;2023-07-22T01:01:29;18.60;99.90
19164;DHT22;9714;51.208;4.242;2023-07-22T01:04:00;18.40;99.90
19164;DHT22;9714;51.208;4.242;2023-07-22T01:06:32;18.20;99.90
19164;DHT22;9714;51.208;4.242;2023-07-22T01:08:59;18.00;99.90
19164;DHT22;9714;51.208;4.242;2023-07-22T01:11:26;18.00;99.90
19164;DHT22;9714;51.208;4.242;2023-07-22T01:13:53;18.00;99.90
19164;DHT22;9714;51.208;4.242;2023-07-22T01:16:26;18.00;99.90
19164;DHT22;9714;51.208;4.242;2023-07-22T01:18:53;17.90;99.90
19164;DHT22;9714;51.208;4.242;2023-07-22T01:21:21;17.90;99.90
19164;DHT22;9714;51.208;4.242;2023-07-22T01:23:51;17.80;99.90
19164;DHT22;9714;51.208;4.242;2023-07-22T01:26:18;17.80;99.90
19164;DHT22;9714;51.208;4.242;2023-07-22T01:28:45;17.90;99.90
19164;DHT22;9714;51.208;4.242;2023-07-22T01:31:13;17.90;99.90
19164;DHT22;9714;51.208;4.242;2023-07-22T01:33:40;17.80;99.90
19164;DHT22;9714;51.208;4.242;2023-07-22T01:36:07;17.60;99.90
19164;DHT22;9714;51.208;4.242;2023-07-22T01:38:34;17.60;99.90
19164;DHT22;9714;51.208;4.242;2023-07-22T01:41:02;17.80;99.90
19164;DHT22;9714;51.208;4.242;2023-07-22T01:43:29;17.70;99.90
19164;DHT22;9714;51.208;4.242;2023-07-22T01:45:57;17.60;99.90
19164;DHT22;9714;51.208;4.242;2023-07-22T01:48:24;17.50;99.90
19164;DHT22;9714;51.208;4.242;2023-07-22T01:50:51;17.60;99.90
19164;DHT22;9714;51.208;4.242;2023-07-22T01:53:18;17.60;99.90
19164;DHT22;9714;51.208;4.242;2023-07-22T01:55:46;17.40;99.90
19164;DHT22;9714;51.208;4.242;2023-07-22T01:58:14;17.20;99.90
19164;DHT22;9714;51.208;4.242;2023-07-22T02:00:42;17.30;99.90
19164;DHT22;9714;51.208;4.242;2023-07-22T02:03:10;17.20;99.90
19164;DHT22;9714;51.208;4.242;2023-07-22T02:05:38;17.50;99.90
19164;DHT22;9714;51.208;4.242;2023-07-22T02:08:05;17.30;99.90
19164;DHT22;9714;51.208;4.242;2023-07-22T02:10:32;17.20;99.90
19164;DHT22;9714;51.208;4.242;2023-07-22T02:12:59;17.20;99.90
19164;DHT22;9714;51.208;4.242;2023-07-22T02:15:28;17.20;99.90
19164;DHT22;9714;51.208;4.242;2023-07-22T02:17:55;17.10;99.90
19164;DHT22;9714;51.208;4.242;2023-07-22T02:20:22;17.10;99.90
19164;DHT22;9714;51.208;4.242;2023-07-22T02:22:49;17.20;99.90
19164;DHT22;9714;51.208;4.242;2023-07-22T02:25:16;17.30;99.90
19164;DHT22;9714;51.208;4.242;2023-07-22T02:27:43;17.40;99.90
19164;DHT22;9714;51.208;4.242;2023-07-22T02:30:12;17.40;99.90
19164;DHT22;9714;51.208;4.242;2023-07-22T02:32:41;17.20;99.90
19164;DHT22;9714;51.208;4.242;2023-07-22T02:35:09;17.10;99.90
19164;DHT22;9714;51.208;4.242;2023-07-22T02:37:38;17.10;99.90
19164;DHT22;9714;51.208;4.242;2023-07-22T02:40:06;17.30;99.90
19164;DHT22;9714;51.208;4.242;2023-07-22T02:42:37;17.10;99.90
19164;DHT22;9714;51.208;4.242;2023-07-22T02:45:04;17.20;99.90
19164;DHT22;9714;51.208;4.242;2023-07-22T02:47:33;17.30;99.90
19164;DHT22;9714;51.208;4.242;2023-07-22T02:50:04;17.20;99.90
19164;DHT22;9714;51.208;4.242;2023-07-22T02:52:32;17.20;99.90
19164;DHT22;9714;51.208;4.242;2023-07-22T02:55:07;17.10;99.90
19164;DHT22;9714;51.208;4.242;2023-07-22T02:57:36;17.10;99.90
19164;DHT22;9714;51.208;4.242;2023-07-22T03:00:05;17.10;99.90
19164;DHT22;9714;51.208;4.242;2023-07-22T03:02:35;17.30;99.90
19164;DHT22;9714;51.208;4.242;2023-07-22T03:05:05;17.20;99.90
19164;DHT22;9714;51.208;4.242;2023-07-22T03:07:33;17.20;99.90
19164;DHT22;9714;51.208;4.242;2023-07-22T03:10:03;17.10;99.90
19164;DHT22;9714;51.208;4.242;2023-07-22T03:12:31;17.10;99.90
19164;DHT22;9714;51.208;4.242;2023-07-22T03:14:58;17.10;99.90
19164;DHT22;9714;51.208;4.242;2023-07-22T03:17:25;16.90;99.90
19164;DHT22;9714;51.208;4.242;2023-07-22T03:19:53;17.00;99.90
19164;DHT22;9714;51.208;4.242;2023-07-22T03:22:22;17.10;99.90
19164;DHT22;9714;51.208;4.242;2023-07-22T03:24:49;16.90;99.90
19164;DHT22;9714;51.208;4.242;2023-07-22T03:27:17;16.80;99.90
19164;DHT22;9714;51.208;4.242;2023-07-22T03:29:44;16.70;99.90
19164;DHT22;9714;51.208;4.242;2023-07-22T03:32:11;16.80;99.90
19164;DHT22;9714;51.208;4.242;2023-07-22T03:34:40;16.80;99.90
19164;DHT22;9714;51.208;4.242;2023-07-22T03:37:07;16.60;99.90
19164;DHT22;9714;51.208;4.242;2023-07-22T03:39:36;16.70;99.90
19164;DHT22;9714;51.208;4.242;2023-07-22T03:42:04;16.50;99.90
19164;DHT22;9714;51.208;4.242;2023-07-22T03:44:32;16.40;99.90
19164;DHT22;9714;51.208;4.242;2023-07-22T03:47:00;16.30;99.90
19164;DHT22;9714;51.208;4.242;2023-07-22T03:49:27;16.30;99.90
19164;DHT22;9714;51.208;4.242;2023-07-22T03:51:54;16.40;99.90
19164;DHT22;9714;51.208;4.242;2023-07-22T03:54:23;16.40;99.90
19164;DHT22;9714;51.208;4.242;2023-07-22T03:56:52;16.60;99.90
19164;DHT22;9714;51.208;4.242;2023-07-22T03:59:20;16.30;99.90
19164;DHT22;9714;51.208;4.242;2023-07-22T04:01:48;16.20;99.90
19164;DHT22;9714;51.208;4.242;2023-07-22T04:04:15;16.20;99.90
19164;DHT22;9714;51.208;4.242;2023-07-22T04:06:43;16.30;99.90
19164;DHT22;9714;51.208;4.242;2023-07-22T04:09:11;16.30;99.90
19164;DHT22;9714;51.208;4.242;2023-07-22T04:11:39;16.30;99.90
19164;DHT22;9714;51.208;4.242;2023-07-22T04:14:14;16.40;99.90
19164;DHT22;9714;51.208;4.242;2023-07-22T04:16:42;16.50;99.90
19164;DHT22;9714;51.208;4.242;2023-07-22T04:19:11;16.70;99.90
19164;DHT22;9714;51.208;4.242;2023-07-22T04:21:39;16.80;99.90
19164;DHT22;9714;51.208;4.242;2023-07-22T04:24:06;16.80;99.90
19164;DHT22;9714;51.208;4.242;2023-07-22T04:26:34;16.70;99.90
19164;DHT22;9714;51.208;4.242;2023-07-22T04:29:01;16.80;99.90
19164;DHT22;9714;51.208;4.242;2023-07-22T04:31:30;16.70;99.90
19164;DHT22;9714;51.208;4.242;2023-07-22T04:33:57;16.80;99.90
19164;DHT22;9714;51.208;4.242;2023-07-22T04:36:25;16.90;99.90
19164;DHT22;9714;51.208;4.242;2023-07-22T04:38:52;16.80;99.90
19164;DHT22;9714;51.208;4.242;2023-07-22T04:41:19;16.70;99.90
19164;DHT22;9714;51.208;4.242;2023-07-22T04:43:47;16.60;99.90
19164;DHT22;9714;51.208;4.242;2023-07-22T04:46:16;16.60;99.90
19164;DHT22;9714;51.208;4.242;2023-07-22T04:48:47;16.70;99.90
19164;DHT22;9714;51.208;4.242;2023-07-22T04:51:14;16.70;99.90
19164;DHT22;9714;51.208;4.242;2023-07-22T04:53:41;16.60;99.90
19164;DHT22;9714;51.208;4.242;2023-07-22T04:56:08;16.70;99.90
19164;DHT22;9714;51.208;4.242;2023-07-22T04:58:36;16.60;99.90
19164;DHT22;9714;51.208;4.242;2023-07-22T05:01:04;16.90;99.90
19164;DHT22;9714;51.208;4.242;2023-07-22T05:03:31;16.60;99.90
19164;DHT22;9714;51.208;4.242;2023-07-22T05:06:00;16.70;99.90
19164;DHT22;9714;51.208;4.242;2023-07-22T05:08:27;16.80;99.90
19164;DHT22;9714;51.208;4.242;2023-07-22T05:10:54;16.70;99.90
19164;DHT22;9714;51.208;4.242;2023-07-22T05:13:21;16.80;99.90
19164;DHT22;9714;51.208;4.242;2023-07-22T05:15:49;16.70;99.90
19164;DHT22;9714;51.208;4.242;2023-07-22T05:18:16;16.70;99.90
19164;DHT22;9714;51.208;4.242;2023-07-22T05:20:43;16.90;99.90
19164;DHT22;9714;51.208;4.242;2023-07-22T05:23:17;16.90;99.90
19164;DHT22;9714;51.208;4.242;2023-07-22T05:25:44;16.90;99.90
19164;DHT22;9714;51.208;4.242;2023-07-22T05:28:11;17.00;99.90
19164;DHT22;9714;51.208;4.242;2023-07-22T05:30:41;17.00;99.90
19164;DHT22;9714;51.208;4.242;2023-07-22T05:33:12;17.00;99.90
19164;DHT22;9714;51.208;4.242;2023-07-22T05:35:40;17.10;99.90
19164;DHT22;9714;51.208;4.242;2023-07-22T05:38:07;17.20;99.90
19164;DHT22;9714;51.208;4.242;2023-07-22T05:40:37;16.90;99.90
19164;DHT22;9714;51.208;4.242;2023-07-22T05:43:04;17.10;99.90
19164;DHT22;9714;51.208;4.242;2023-07-22T05:45:31;17.20;99.90
19164;DHT22;9714;51.208;4.242;2023-07-22T05:47:59;17.10;99.90
19164;DHT22;9714;51.208;4.242;2023-07-22T05:50:29;17.30;99.90
19164;DHT22;9714;51.208;4.242;2023-07-22T05:53:03;17.30;99.90
19164;DHT22;9714;51.208;4.242;2023-07-22T05:55:31;17.30;99.90
19164;DHT22;9714;51.208;4.242;2023-07-22T05:58:26;17.50;99.90
19164;DHT22;9714;51.208;4.242;2023-07-22T06:01:02;17.70;99.90
19164;DHT22;9714;51.208;4.242;2023-07-22T06:03:30;17.70;99.90
19164;DHT22;9714;51.208;4.242;2023-07-22T06:06:12;17.50;99.90
19164;DHT22;9714;51.208;4.242;2023-07-22T06:08:46;17.70;99.90
19164;DHT22;9714;51.208;4.242;2023-07-22T06:11:20;17.80;99.90
19164;DHT22;9714;51.208;4.242;2023-07-22T06:13:56;17.70;99.90
19164;DHT22;9714;51.208;4.242;2023-07-22T06:16:25;17.50;99.90
19164;DHT22;9714;51.208;4.242;2023-07-22T06:18:55;17.60;99.90
19164;DHT22;9714;51.208;4.242;2023-07-22T06:21:29;17.60;99.90
19164;DHT22;9714;51.208;4.242;2023-07-22T06:24:00;18.00;99.90
19164;DHT22;9714;51.208;4.242;2023-07-22T06:26:34;17.90;99.90
19164;DHT22;9714;51.208;4.242;2023-07-22T06:29:04;17.90;99.90
19164;DHT22;9714;51.208;4.242;2023-07-22T06:31:33;18.00;99.90
19164;DHT22;9714;51.208;4.242;2023-07-22T06:34:07;18.20;99.90
19164;DHT22;9714;51.208;4.242;2023-07-22T06:36:43;18.50;99.90
19164;DHT22;9714;51.208;4.242;2023-07-22T06:39:16;18.50;99.90
19164;DHT22;9714;51.208;4.242;2023-07-22T06:41:45;18.60;99.90
19164;DHT22;9714;51.208;4.242;2023-07-22T06:44:16;18.70;99.90
19164;DHT22;9714;51.208;4.242;2023-07-22T06:47:10;18.50;99.90
19164;DHT22;9714;51.208;4.242;2023-07-22T06:49:39;18.60;99.90
19164;DHT22;9714;51.208;4.242;2023-07-22T06:52:07;18.60;99.90
19164;DHT22;9714;51.208;4.242;2023-07-22T06:54:36;18.60;99.90
19164;DHT22;9714;51.208;4.242;2023-07-22T06:57:04;18.50;99.90
19164;DHT22;9714;51.208;4.242;2023-07-22T06:59:33;18.40;99.90
19164;DHT22;9714;51.208;4.242;2023-07-22T07:02:04;18.70;99.90
19164;DHT22;9714;51.208;4.242;2023-07-22T07:04:32;18.80;99.90
19164;DHT22;9714;51.208;4.242;2023-07-22T07:07:00;18.80;99.90
19164;DHT22;9714;51.208;4.242;2023-07-22T07:09:28;19.20;99.90
19164;DHT22;9714;51.208;4.242;2023-07-22T07:11:59;19.10;99.90
19164;DHT22;9714;51.208;4.242;2023-07-22T07:14:35;19.10;99.90
19164;DHT22;9714;51.208;4.242;2023-07-22T07:17:04;19.10;99.90
19164;DHT22;9714;51.208;4.242;2023-07-22T07:19:33;18.80;99.90
19164;DHT22;9714;51.208;4.242;2023-07-22T07:22:04;18.80;99.90
19164;DHT22;9714;51.208;4.242;2023-07-22T07:24:35;19.10;99.90
19164;DHT22;9714;51.208;4.242;2023-07-22T07:27:05;19.20;99.90
19164;DHT22;9714;51.208;4.242;2023-07-22T07:29:42;19.50;99.90
19164;DHT22;9714;51.208;4.242;2023-07-22T07:32:13;19.40;99.90
19164;DHT22;9714;51.208;4.242;2023-07-22T07:34:41;19.70;99.90
19164;DHT22;9714;51.208;4.242;2023-07-22T07:37:15;20.00;99.90
19164;DHT22;9714;51.208;4.242;2023-07-22T07:39:49;20.10;99.90
19164;DHT22;9714;51.208;4.242;2023-07-22T07:42:29;20.40;99.90
19164;DHT22;9714;51.208;4.242;2023-07-22T07:45:01;20.50;99.90
19164;DHT22;9714;51.208;4.242;2023-07-22T07:47:58;20.70;99.90
19164;DHT22;9714;51.208;4.242;2023-07-22T07:50:56;20.90;99.90
19164;DHT22;9714;51.208;4.242;2023-07-22T07:53:30;21.00;99.90
19164;DHT22;9714;51.208;4.242;2023-07-22T07:56:03;21.40;99.90
19164;DHT22;9714;51.208;4.242;2023-07-22T07:58:40;21.30;99.90
19164;DHT22;9714;51.208;4.242;2023-07-22T08:01:20;21.40;99.90
19164;DHT22;9714;51.208;4.242;2023-07-22T08:03:48;21.50;99.90
19164;DHT22;9714;51.208;4.242;2023-07-22T08:06:20;21.40;99.90
19164;DHT22;9714;51.208;4.242;2023-07-22T08:08:47;21.50;99.90
19164;DHT22;9714;51.208;4.242;2023-07-22T08:11:15;21.40;99.90
19164;DHT22;9714;51.208;4.242;2023-07-22T08:13:44;21.70;99.90
19164;DHT22;9714;51.208;4.242;2023-07-22T08:16:13;21.30;99.90
19164;DHT22;9714;51.208;4.242;2023-07-22T08:18:43;21.10;99.90
19164;DHT22;9714;51.208;4.242;2023-07-22T08:21:15;21.20;99.90
19164;DHT22;9714;51.208;4.242;2023-07-22T08:23:43;21.60;99.90
19164;DHT22;9714;51.208;4.242;2023-07-22T08:26:13;21.90;99.90
19164;DHT22;9714;51.208;4.242;2023-07-22T08:28:49;22.00;99.90
19164;DHT22;9714;51.208;4.242;2023-07-22T08:31:18;22.10;99.90
19164;DHT22;9714;51.208;4.242;2023-07-22T08:33:48;22.20;99.90
19164;DHT22;9714;51.208;4.242;2023-07-22T08:36:16;22.70;99.90
19164;DHT22;9714;51.208;4.242;2023-07-22T08:38:58;23.10;99.90
19164;DHT22;9714;51.208;4.242;2023-07-22T08:41:40;23.50;99.90
19164;DHT22;9714;51.208;4.242;2023-07-22T08:44:38;23.70;99.90
19164;DHT22;9714;51.208;4.242;2023-07-22T08:47:10;24.30;99.90
19164;DHT22;9714;51.208;4.242;2023-07-22T08:49:41;24.70;99.90
19164;DHT22;9714;51.208;4.242;2023-07-22T08:52:11;24.90;99.90
19164;DHT22;9714;51.208;4.242;2023-07-22T08:54:41;25.00;99.90
19164;DHT22;9714;51.208;4.242;2023-07-22T08:57:09;25.60;99.90
19164;DHT22;9714;51.208;4.242;2023-07-22T08:59:38;25.90;99.90
19164;DHT22;9714;51.208;4.242;2023-07-22T09:02:05;25.90;99.90
19164;DHT22;9714;51.208;4.242;2023-07-22T09:04:38;25.00;99.90
19164;DHT22;9714;51.208;4.242;2023-07-22T09:07:08;24.70;99.90
19164;DHT22;9714;51.208;4.242;2023-07-22T09:09:36;24.20;99.90
19164;DHT22;9714;51.208;4.242;2023-07-22T09:12:05;23.90;99.90
19164;DHT22;9714;51.208;4.242;2023-07-22T09:14:34;23.80;99.90
19164;DHT22;9714;51.208;4.242;2023-07-22T09:17:04;23.70;99.90
19164;DHT22;9714;51.208;4.242;2023-07-22T09:19:33;23.60;99.90
19164;DHT22;9714;51.208;4.242;2023-07-22T09:22:02;23.90;99.90
19164;DHT22;9714;51.208;4.242;2023-07-22T09:24:32;24.50;99.90
19164;DHT22;9714;51.208;4.242;2023-07-22T09:26:59;24.80;99.90
19164;DHT22;9714;51.208;4.242;2023-07-22T09:29:36;24.80;99.90
19164;DHT22;9714;51.208;4.242;2023-07-22T09:32:05;24.70;99.90
19164;DHT22;9714;51.208;4.242;2023-07-22T09:34:33;24.40;99.90
19164;DHT22;9714;51.208;4.242;2023-07-22T09:37:01;25.10;99.90
19164;DHT22;9714;51.208;4.242;2023-07-22T09:39:30;25.50;99.90
19164;DHT22;9714;51.208;4.242;2023-07-22T09:41:57;25.50;99.90
19164;DHT22;9714;51.208;4.242;2023-07-22T09:44:29;25.60;99.90
19164;DHT22;9714;51.208;4.242;2023-07-22T09:46:56;25.40;99.90
19164;DHT22;9714;51.208;4.242;2023-07-22T09:49:24;25.10;99.90
19164;DHT22;9714;51.208;4.242;2023-07-22T09:51:54;25.30;99.90
19164;DHT22;9714;51.208;4.242;2023-07-22T09:54:26;25.50;99.90
19164;DHT22;9714;51.208;4.242;2023-07-22T09:56:55;26.00;99.90
19164;DHT22;9714;51.208;4.242;2023-07-22T09:59:23;26.10;99.90
19164;DHT22;9714;51.208;4.242;2023-07-22T10:01:51;26.40;99.90
19164;DHT22;9714;51.208;4.242;2023-07-22T10:04:21;26.90;99.90
19164;DHT22;9714;51.208;4.242;2023-07-22T10:06:50;27.10;99.20
19164;DHT22;9714;51.208;4.242;2023-07-22T10:09:18;26.90;98.50
19164;DHT22;9714;51.208;4.242;2023-07-22T10:11:48;26.60;98.50
19164;DHT22;9714;51.208;4.242;2023-07-22T10:14:15;25.70;99.30
19164;DHT22;9714;51.208;4.242;2023-07-22T10:16:44;25.90;98.90
19164;DHT22;9714;51.208;4.242;2023-07-22T10:19:11;26.50;98.40
19164;DHT22;9714;51.208;4.242;2023-07-22T10:21:39;26.80;96.80
19164;DHT22;9714;51.208;4.242;2023-07-22T10:24:07;26.80;95.30
19164;DHT22;9714;51.208;4.242;2023-07-22T10:26:34;26.70;95.20
19164;DHT22;9714;51.208;4.242;2023-07-22T10:29:04;26.50;95.30
19164;DHT22;9714;51.208;4.242;2023-07-22T10:31:31;27.00;94.90
19164;DHT22;9714;51.208;4.242;2023-07-22T10:33:59;27.40;93.10
19164;DHT22;9714;51.208;4.242;2023-07-22T10:36:29;27.20;93.10
19164;DHT22;9714;51.208;4.242;2023-07-22T10:38:57;27.50;92.60
19164;DHT22;9714;51.208;4.242;2023-07-22T10:41:25;27.30;90.80
19164;DHT22;9714;51.208;4.242;2023-07-22T10:43:54;26.90;91.10
19164;DHT22;9714;51.208;4.242;2023-07-22T10:46:33;26.70;91.50
19164;DHT22;9714;51.208;4.242;2023-07-22T10:49:10;27.00;91.10
19164;DHT22;9714;51.208;4.242;2023-07-22T10:51:38;28.00;90.00
19164;DHT22;9714;51.208;4.242;2023-07-22T10:54:12;27.90;89.00
19164;DHT22;9714;51.208;4.242;2023-07-22T10:56:41;26.80;90.00
19164;DHT22;9714;51.208;4.242;2023-07-22T10:59:10;26.10;91.20
19164;DHT22;9714;51.208;4.242;2023-07-22T11:01:44;26.10;91.50
19164;DHT22;9714;51.208;4.242;2023-07-22T11:04:29;26.00;91.00
19164;DHT22;9714;51.208;4.242;2023-07-22T11:07:05;26.10;91.00
19164;DHT22;9714;51.208;4.242;2023-07-22T11:09:37;26.70;90.20
19164;DHT22;9714;51.208;4.242;2023-07-22T11:12:06;27.10;88.70
19164;DHT22;9714;51.208;4.242;2023-07-22T11:14:38;27.20;87.70
19164;DHT22;9714;51.208;4.242;2023-07-22T11:17:08;27.40;86.00
19164;DHT22;9714;51.208;4.242;2023-07-22T11:19:37;27.70;84.50
19164;DHT22;9714;51.208;4.242;2023-07-22T11:22:10;28.20;82.20
19164;DHT22;9714;51.208;4.242;2023-07-22T11:24:41;27.60;82.00
19164;DHT22;9714;51.208;4.242;2023-07-22T11:27:09;28.50;81.30
19164;DHT22;9714;51.208;4.242;2023-07-22T11:29:37;29.70;78.60
19164;DHT22;9714;51.208;4.242;2023-07-22T11:32:14;30.70;73.10
19164;DHT22;9714;51.208;4.242;2023-07-22T11:34:42;30.30;72.50
19164;DHT22;9714;51.208;4.242;2023-07-22T11:37:11;29.70;74.20
19164;DHT22;9714;51.208;4.242;2023-07-22T11:39:39;28.80;71.30
19164;DHT22;9714;51.208;4.242;2023-07-22T11:42:10;28.20;72.10
19164;DHT22;9714;51.208;4.242;2023-07-22T11:44:39;28.30;72.10
19164;DHT22;9714;51.208;4.242;2023-07-22T11:47:08;27.90;73.80
19164;DHT22;9714;51.208;4.242;2023-07-22T11:49:38;28.30;73.50
19164;DHT22;9714;51.208;4.242;2023-07-22T11:52:09;28.00;73.20
19164;DHT22;9714;51.208;4.242;2023-07-22T11:54:37;27.70;74.60
19164;DHT22;9714;51.208;4.242;2023-07-22T11:57:14;27.40;73.90
19164;DHT22;9714;51.208;4.242;2023-07-22T11:59:44;28.20;74.60
19164;DHT22;9714;51.208;4.242;2023-07-22T12:02:16;28.70;70.90
19164;DHT22;9714;51.208;4.242;2023-07-22T12:04:43;29.20;70.60
19164;DHT22;9714;51.208;4.242;2023-07-22T12:07:25;29.70;71.40
19164;DHT22;9714;51.208;4.242;2023-07-22T12:09:53;30.20;70.10
19164;DHT22;9714;51.208;4.242;2023-07-22T12:12:32;30.30;69.20
19164;DHT22;9714;51.208;4.242;2023-07-22T12:15:08;30.50;67.70
19164;DHT22;9714;51.208;4.242;2023-07-22T12:17:47;31.00;68.00
19164;DHT22;9714;51.208;4.242;2023-07-22T12:20:15;31.00;64.60
19164;DHT22;9714;51.208;4.242;2023-07-22T12:22:42;30.60;64.90
19164;DHT22;9714;51.208;4.242;2023-07-22T12:25:10;29.70;65.60
19164;DHT22;9714;51.208;4.242;2023-07-22T12:27:38;29.80;65.40
19164;DHT22;9714;51.208;4.242;2023-07-22T12:30:06;30.20;66.00
19164;DHT22;9714;51.208;4.242;2023-07-22T12:32:34;29.70;65.20
19164;DHT22;9714;51.208;4.242;2023-07-22T12:35:03;28.50;66.60
19164;DHT22;9714;51.208;4.242;2023-07-22T12:37:33;27.40;67.20
19164;DHT22;9714;51.208;4.242;2023-07-22T12:40:00;26.30;70.30
19164;DHT22;9714;51.208;4.242;2023-07-22T12:42:36;25.70;71.80
19164;DHT22;9714;51.208;4.242;2023-07-22T12:45:10;25.20;73.20
19164;DHT22;9714;51.208;4.242;2023-07-22T12:47:37;24.90;74.80
19164;DHT22;9714;51.208;4.242;2023-07-22T12:50:07;24.70;75.40
19164;DHT22;9714;51.208;4.242;2023-07-22T12:52:35;24.20;76.90
19164;DHT22;9714;51.208;4.242;2023-07-22T12:55:06;24.10;79.60
19164;DHT22;9714;51.208;4.242;2023-07-22T12:57:33;24.10;87.00
19164;DHT22;9714;51.208;4.242;2023-07-22T13:00:00;24.20;90.00
19164;DHT22;9714;51.208;4.242;2023-07-22T13:02:30;24.00;90.50
19164;DHT22;9714;51.208;4.242;2023-07-22T13:04:57;24.00;91.70
19164;DHT22;9714;51.208;4.242;2023-07-22T13:07:25;23.90;92.60
19164;DHT22;9714;51.208;4.242;2023-07-22T13:09:52;23.90;93.30
19164;DHT22;9714;51.208;4.242;2023-07-22T13:12:22;23.90;93.50
19164;DHT22;9714;51.208;4.242;2023-07-22T13:14:49;24.00;94.20
19164;DHT22;9714;51.208;4.242;2023-07-22T13:17:16;24.10;94.10
19164;DHT22;9714;51.208;4.242;2023-07-22T13:19:43;24.00;93.90
19164;DHT22;9714;51.208;4.242;2023-07-22T13:22:10;23.90;94.00
19164;DHT22;9714;51.208;4.242;2023-07-22T13:24:38;23.90;93.70
19164;DHT22;9714;51.208;4.242;2023-07-22T13:27:06;23.90;93.80
19164;DHT22;9714;51.208;4.242;2023-07-22T13:29:33;24.20;93.80
19164;DHT22;9714;51.208;4.242;2023-07-22T13:32:00;24.70;93.00
19164;DHT22;9714;51.208;4.242;2023-07-22T13:34:28;25.30;92.40
19164;DHT22;9714;51.208;4.242;2023-07-22T13:36:55;25.50;91.60
19164;DHT22;9714;51.208;4.242;2023-07-22T13:39:23;25.50;91.10
19164;DHT22;9714;51.208;4.242;2023-07-22T13:41:51;25.50;90.60
19164;DHT22;9714;51.208;4.242;2023-07-22T13:44:18;25.40;90.20
19164;DHT22;9714;51.208;4.242;2023-07-22T13:46:45;25.20;90.40
19164;DHT22;9714;51.208;4.242;2023-07-22T13:49:13;25.10;90.60
19164;DHT22;9714;51.208;4.242;2023-07-22T13:51:40;25.50;90.10
19164;DHT22;9714;51.208;4.242;2023-07-22T13:54:07;26.10;88.20
19164;DHT22;9714;51.208;4.242;2023-07-22T13:56:34;26.50;88.10
19164;DHT22;9714;51.208;4.242;2023-07-22T13:59:03;26.60;86.60
19164;DHT22;9714;51.208;4.242;2023-07-22T14:01:30;25.70;87.50
19164;DHT22;9714;51.208;4.242;2023-07-22T14:03:57;25.00;89.10
19164;DHT22;9714;51.208;4.242;2023-07-22T14:06:24;24.60;88.90
19164;DHT22;9714;51.208;4.242;2023-07-22T14:08:51;24.10;89.80
19164;DHT22;9714;51.208;4.242;2023-07-22T14:11:19;24.00;90.00
19164;DHT22;9714;51.208;4.242;2023-07-22T14:13:46;23.60;90.50
19164;DHT22;9714;51.208;4.242;2023-07-22T14:16:14;23.40;90.80
19164;DHT22;9714;51.208;4.242;2023-07-22T14:18:41;23.10;90.90
19164;DHT22;9714;51.208;4.242;2023-07-22T14:21:08;22.90;91.40
19164;DHT22;9714;51.208;4.242;2023-07-22T14:23:37;22.60;91.80
19164;DHT22;9714;51.208;4.242;2023-07-22T14:26:04;22.60;92.30
19164;DHT22;9714;51.208;4.242;2023-07-22T14:28:31;22.60;92.50
19164;DHT22;9714;51.208;4.242;2023-07-22T14:30:58;22.80;92.40
19164;DHT22;9714;51.208;4.242;2023-07-22T14:33:26;22.90;91.80
19164;DHT22;9714;51.208;4.242;2023-07-22T14:35:54;23.00;91.80
19164;DHT22;9714;51.208;4.242;2023-07-22T14:38:21;23.20;91.70
19164;DHT22;9714;51.208;4.242;2023-07-22T14:40:49;23.20;91.90
19164;DHT22;9714;51.208;4.242;2023-07-22T14:43:16;23.60;91.60
19164;DHT22;9714;51.208;4.242;2023-07-22T14:45:43;24.20;90.70
19164;DHT22;9714;51.208;4.242;2023-07-22T14:48:10;24.70;90.00
19164;DHT22;9714;51.208;4.242;2023-07-22T14:50:39;24.60;88.70
19164;DHT22;9714;51.208;4.242;2023-07-22T14:53:06;24.60;87.70
19164;DHT22;9714;51.208;4.242;2023-07-22T14:55:33;24.70;87.40
19164;DHT22;9714;51.208;4.242;2023-07-22T14:58:00;24.00;88.80
19164;DHT22;9714;51.208;4.242;2023-07-22T15:00:27;23.80;90.10
19164;DHT22;9714;51.208;4.242;2023-07-22T15:02:55;23.90;90.40
19164;DHT22;9714;51.208;4.242;2023-07-22T15:05:23;24.10;89.50
19164;DHT22;9714;51.208;4.242;2023-07-22T15:07:52;24.30;89.90
19164;DHT22;9714;51.208;4.242;2023-07-22T15:10:19;24.20;88.70
19164;DHT22;9714;51.208;4.242;2023-07-22T15:12:46;24.10;87.50
19164;DHT22;9714;51.208;4.242;2023-07-22T15:15:13;23.90;88.10
19164;DHT22;9714;51.208;4.242;2023-07-22T15:17:40;24.00;87.90
19164;DHT22;9714;51.208;4.242;2023-07-22T15:20:08;24.00;87.40
19164;DHT22;9714;51.208;4.242;2023-07-22T15:22:35;24.10;87.30
19164;DHT22;9714;51.208;4.242;2023-07-22T15:25:05;24.10;88.10
19164;DHT22;9714;51.208;4.242;2023-07-22T15:27:33;24.10;87.20
19164;DHT22;9714;51.208;4.242;2023-07-22T15:30:00;24.20;87.40
19164;DHT22;9714;51.208;4.242;2023-07-22T15:32:27;24.10;87.00
19164;DHT22;9714;51.208;4.242;2023-07-22T15:34:54;23.60;87.60
19164;DHT22;9714;51.208;4.242;2023-07-22T15:37:21;23.40;88.70
19164;DHT22;9714;51.208;4.242;2023-07-22T15:39:48;23.50;88.80
19164;DHT22;9714;51.208;4.242;2023-07-22T15:42:17;23.20;89.70
19164;DHT22;9714;51.208;4.242;2023-07-22T15:44:44;23.00;90.20
19164;DHT22;9714;51.208;4.242;2023-07-22T15:47:11;23.10;90.40
19164;DHT22;9714;51.208;4.242;2023-07-22T15:49:38;23.30;90.30
19164;DHT22;9714;51.208;4.242;2023-07-22T15:52:05;23.20;90.40
19164;DHT22;9714;51.208;4.242;2023-07-22T15:54:32;23.00;90.70
19164;DHT22;9714;51.208;4.242;2023-07-22T15:56:58;22.90;91.00
19164;DHT22;9714;51.208;4.242;2023-07-22T15:59:27;22.70;91.50